Hanjin Chongqing — 3EPJ2 — position and weather

sailwx.info

Track history (hours):
 
Tides and Currents Weather Stations Pressure Air Temp Water Temp Dewpoint Dewpoint Depression Visibility Wind Speed Wind Dir Waves Ship Positions

Hanjin Chongqing

Last reported at 2016-Apr-28 17:06 UTC. Time now 2016-May-01 04:12 UTC.
Position N 08°36' W 016°58'.

Length 304 m; draft 12 m.

Type: Cargo ship. MMSI: 353957976.

Date/timePositionNaut miles runAvg speedWind from/ knotsBaromVisibWave heightAir tempDewpointWater temp
2016-Apr-28 17:06N 08°36' W 016°58'915.7
2016-Apr-28 16:32N 08°44' W 017°02'  
2016-Apr-25 17:17N 27°31' W 015°17'1115.5
2016-Apr-25 16:34N 27°41' W 015°12'1515.2
2016-Apr-25 15:34N 27°55' W 015°06'1515.3
2016-Apr-25 14:33N 28°10' W 014°60'1515.2
2016-Apr-25 13:34N 28°24' W 014°54'1515.3
2016-Apr-25 12:34N 28°39' W 014°50'1515.0
2016-Apr-25 11:33N 28°53' W 014°46'1515.0
2016-Apr-25 10:33N 29°08' W 014°42'1515.2
2016-Apr-25 09:33N 29°23' W 014°37'1515.4
2016-Apr-25 08:33N 29°37' W 014°32'1515.2
2016-Apr-25 07:33N 29°52' W 014°28'1515.3
2016-Apr-25 06:33N 30°07' W 014°23'1515.4
2016-Apr-25 05:33N 30°22' W 014°18'1515.0
2016-Apr-25 04:33N 30°36' W 014°13'2215.4
2016-Apr-25 03:10N 30°57' W 014°07'  
2016-Apr-21 20:29N 49°01' W 005°23'1515.5
2016-Apr-21 19:33N 49°09' W 005°04'1514.6
2016-Apr-21 18:30N 49°16' W 004°43'1313.7
2016-Apr-21 17:33N 49°23' W 004°26'1313.3
2016-Apr-21 16:33N 49°30' W 004°09'1713.8
2016-Apr-21 15:19N 49°40' W 003°48'1114.4
2016-Apr-21 14:33N 49°45' W 003°32'1615.9
2016-Apr-21 13:33N 49°52' W 003°11'1716.9
2016-Apr-21 12:33N 49°59' W 002°47'1716.8
2016-Apr-21 11:33N 50°03' W 002°21'4013.5
2016-Apr-21 08:33N 49°60' W 001°19'1211.7
2016-Apr-21 07:33N 49°54' W 001°03'1211.8
2016-Apr-21 06:33N 49°47' W 000°48'1313.1
2016-Apr-21 05:33N 49°40' W 000°31'1515.0
2016-Apr-21 04:33N 49°32' W 000°11'1212.4
2016-Apr-21 03:33N 49°28' E 000°07'2 1.9
2016-Apr-21 02:31N 49°27' E 000°10'0 0.0
2016-Apr-21 01:31N 49°27' E 000°10'0 0.0
2016-Apr-21 00:31N 49°27' E 000°10'0 0.0
2016-Apr-20 23:31N 49°27' E 000°10'0 0.0
2016-Apr-20 22:31N 49°27' E 000°10'0 0.0
2016-Apr-20 21:31N 49°27' E 000°10'0 0.0
2016-Apr-20 20:31N 49°27' E 000°10'0 0.0
2016-Apr-20 19:31N 49°27' E 000°10'0 0.0
2016-Apr-20 18:31N 49°27' E 000°10'0 0.0
2016-Apr-20 17:31N 49°27' E 000°10'0 0.0
2016-Apr-20 16:31N 49°27' E 000°10'0 0.0
2016-Apr-20 15:31N 49°27' E 000°10'0 0.0
2016-Apr-20 14:31N 49°27' E 000°10'0 0.0
2016-Apr-20 13:31N 49°27' E 000°10'0 0.0
2016-Apr-20 12:33N 49°27' E 000°10'7 6.8
2016-Apr-20 11:33N 49°30' E 000°00'8 8.2
2016-Apr-20 10:33N 49°36' W 000°09'9 9.3
2016-Apr-20 09:33N 49°44' W 000°02'1111.0
2016-Apr-20 08:34N 49°53' E 000°07'1110.5
2016-Apr-20 07:33N 50°01' E 000°17'1211.9
2016-Apr-20 06:33N 50°12' E 000°26'1413.7
2016-Apr-20 05:33N 50°25' E 000°33'1413.6
2016-Apr-20 04:32N 50°37' E 000°43'3216.4
2016-Apr-20 02:33N 50°58' E 001°22'1817.6
2016-Apr-20 01:33N 51°10' E 001°42'1615.9
2016-Apr-20 00:33N 51°25' E 001°52'1414.3
2016-Apr-19 23:33N 51°35' E 002°08'1717.2
2016-Apr-19 22:33N 51°47' E 002°28'1818.4
2016-Apr-19 21:33N 52°01' E 002°48'1818.1
2016-Apr-19 20:33N 52°04' E 003°17'1818.6
2016-Apr-19 19:33N 52°02' E 003°47'1211.5
2016-Apr-19 18:33N 51°59' E 004°05'2 2.2
2016-Apr-19 17:34N 51°57' E 004°03'0 0.1
2016-Apr-19 16:32N 51°57' E 004°03'0 0.0
2016-Apr-19 15:32N 51°57' E 004°03'0 0.0
2016-Apr-19 14:32N 51°57' E 004°03'0 0.0
2016-Apr-19 13:32N 51°57' E 004°03'0 0.0
2016-Apr-19 12:32N 51°57' E 004°03'0 0.0
2016-Apr-19 11:32N 51°57' E 004°03'0 0.0
2016-Apr-19 10:32N 51°57' E 004°03'0 0.0
2016-Apr-19 09:32N 51°57' E 004°03'0 0.0
2016-Apr-19 08:32N 51°57' E 004°03'0 0.0
2016-Apr-19 07:32N 51°57' E 004°03'0 0.0
2016-Apr-19 06:32N 51°57' E 004°03'0 0.0
2016-Apr-19 05:32N 51°57' E 004°03'0 0.0
2016-Apr-19 04:32N 51°57' E 004°03'0 0.0
2016-Apr-19 03:26N 51°57' E 004°03'0 0.0
2016-Apr-19 02:32N 51°57' E 004°03'0 0.0
2016-Apr-19 01:32N 51°57' E 004°03'0 0.0
2016-Apr-19 00:32N 51°57' E 004°03'0 0.0
2016-Apr-18 23:32N 51°57' E 004°03'0 0.0
2016-Apr-18 22:32N 51°57' E 004°03'0 0.0
2016-Apr-18 21:32N 51°57' E 004°03'0 0.0
2016-Apr-18 20:32N 51°57' E 004°03'0 0.0
2016-Apr-18 19:34N 51°57' E 004°03'0 0.0
2016-Apr-18 18:29N 51°57' E 004°03'0 0.0
2016-Apr-18 17:32N 51°57' E 004°03'  
Track history (hours):
 
Tides and Currents Weather Stations Pressure Air Temp Water Temp Dewpoint Dewpoint Depression Visibility Wind Speed Wind Dir Waves Ship Positions

Hanjin Chongqing

Last reported at 2016-Apr-28 17:06 UTC. Time now 2016-May-01 04:12 UTC.
Position N 08°36' W 016°58'.

Length 304 m; draft 12 m.

Type: Cargo ship. MMSI: 353957976.

Date/timePositionNaut miles runAvg speedWind from/ knotsBaromVisibWave heightAir tempDewpointWater temp
2016-Apr-28 17:06N 08°36' W 016°58'915.7
2016-Apr-28 16:32N 08°44' W 017°02'  
2016-Apr-25 17:17N 27°31' W 015°17'1115.5
2016-Apr-25 16:34N 27°41' W 015°12'1515.2
2016-Apr-25 15:34N 27°55' W 015°06'1515.3
2016-Apr-25 14:33N 28°10' W 014°60'1515.2
2016-Apr-25 13:34N 28°24' W 014°54'1515.3
2016-Apr-25 12:34N 28°39' W 014°50'1515.0
2016-Apr-25 11:33N 28°53' W 014°46'1515.0
2016-Apr-25 10:33N 29°08' W 014°42'1515.2
2016-Apr-25 09:33N 29°23' W 014°37'1515.4
2016-Apr-25 08:33N 29°37' W 014°32'1515.2
2016-Apr-25 07:33N 29°52' W 014°28'1515.3
2016-Apr-25 06:33N 30°07' W 014°23'1515.4
2016-Apr-25 05:33N 30°22' W 014°18'1515.0
2016-Apr-25 04:33N 30°36' W 014°13'2215.4
2016-Apr-25 03:10N 30°57' W 014°07'  
2016-Apr-21 20:29N 49°01' W 005°23'1515.5
2016-Apr-21 19:33N 49°09' W 005°04'1514.6
2016-Apr-21 18:30N 49°16' W 004°43'1313.7
2016-Apr-21 17:33N 49°23' W 004°26'1313.3
2016-Apr-21 16:33N 49°30' W 004°09'1713.8
2016-Apr-21 15:19N 49°40' W 003°48'1114.4
2016-Apr-21 14:33N 49°45' W 003°32'1615.9
2016-Apr-21 13:33N 49°52' W 003°11'1716.9
2016-Apr-21 12:33N 49°59' W 002°47'1716.8
2016-Apr-21 11:33N 50°03' W 002°21'4013.5
2016-Apr-21 08:33N 49°60' W 001°19'1211.7
2016-Apr-21 07:33N 49°54' W 001°03'1211.8
2016-Apr-21 06:33N 49°47' W 000°48'1313.1
2016-Apr-21 05:33N 49°40' W 000°31'1515.0
2016-Apr-21 04:33N 49°32' W 000°11'1212.4
2016-Apr-21 03:33N 49°28' E 000°07'2 1.9
2016-Apr-21 02:31N 49°27' E 000°10'0 0.0
2016-Apr-21 01:31N 49°27' E 000°10'0 0.0
2016-Apr-21 00:31N 49°27' E 000°10'0 0.0
2016-Apr-20 23:31N 49°27' E 000°10'0 0.0
2016-Apr-20 22:31N 49°27' E 000°10'0 0.0
2016-Apr-20 21:31N 49°27' E 000°10'0 0.0
2016-Apr-20 20:31N 49°27' E 000°10'0 0.0
2016-Apr-20 19:31N 49°27' E 000°10'0 0.0
2016-Apr-20 18:31N 49°27' E 000°10'0 0.0
2016-Apr-20 17:31N 49°27' E 000°10'0 0.0
2016-Apr-20 16:31N 49°27' E 000°10'0 0.0
2016-Apr-20 15:31N 49°27' E 000°10'0 0.0
2016-Apr-20 14:31N 49°27' E 000°10'0 0.0
2016-Apr-20 13:31N 49°27' E 000°10'0 0.0
2016-Apr-20 12:33N 49°27' E 000°10'7 6.8
2016-Apr-20 11:33N 49°30' E 000°00'8 8.2
2016-Apr-20 10:33N 49°36' W 000°09'9 9.3
2016-Apr-20 09:33N 49°44' W 000°02'1111.0
2016-Apr-20 08:34N 49°53' E 000°07'1110.5
2016-Apr-20 07:33N 50°01' E 000°17'1211.9
2016-Apr-20 06:33N 50°12' E 000°26'1413.7
2016-Apr-20 05:33N 50°25' E 000°33'1413.6
2016-Apr-20 04:32N 50°37' E 000°43'3216.4
2016-Apr-20 02:33N 50°58' E 001°22'1817.6
2016-Apr-20 01:33N 51°10' E 001°42'1615.9
2016-Apr-20 00:33N 51°25' E 001°52'1414.3
2016-Apr-19 23:33N 51°35' E 002°08'1717.2
2016-Apr-19 22:33N 51°47' E 002°28'1818.4
2016-Apr-19 21:33N 52°01' E 002°48'1818.1
2016-Apr-19 20:33N 52°04' E 003°17'1818.6
2016-Apr-19 19:33N 52°02' E 003°47'1211.5
2016-Apr-19 18:33N 51°59' E 004°05'2 2.2
2016-Apr-19 17:34N 51°57' E 004°03'0 0.1
2016-Apr-19 16:32N 51°57' E 004°03'0 0.0
2016-Apr-19 15:32N 51°57' E 004°03'0 0.0
2016-Apr-19 14:32N 51°57' E 004°03'0 0.0
2016-Apr-19 13:32N 51°57' E 004°03'0 0.0
2016-Apr-19 12:32N 51°57' E 004°03'0 0.0
2016-Apr-19 11:32N 51°57' E 004°03'0 0.0
2016-Apr-19 10:32N 51°57' E 004°03'0 0.0
2016-Apr-19 09:32N 51°57' E 004°03'0 0.0
2016-Apr-19 08:32N 51°57' E 004°03'0 0.0
2016-Apr-19 07:32N 51°57' E 004°03'0 0.0
2016-Apr-19 06:32N 51°57' E 004°03'0 0.0
2016-Apr-19 05:32N 51°57' E 004°03'0 0.0
2016-Apr-19 04:32N 51°57' E 004°03'0 0.0
2016-Apr-19 03:26N 51°57' E 004°03'0 0.0
2016-Apr-19 02:32N 51°57' E 004°03'0 0.0
2016-Apr-19 01:32N 51°57' E 004°03'0 0.0
2016-Apr-19 00:32N 51°57' E 004°03'0 0.0
2016-Apr-18 23:32N 51°57' E 004°03'0 0.0
2016-Apr-18 22:32N 51°57' E 004°03'0 0.0
2016-Apr-18 21:32N 51°57' E 004°03'0 0.0
2016-Apr-18 20:32N 51°57' E 004°03'0 0.0
2016-Apr-18 19:34N 51°57' E 004°03'0 0.0
2016-Apr-18 18:29N 51°57' E 004°03'0 0.0
2016-Apr-18 17:32N 51°57' E 004°03'  

Dump ship's entire track history